sensor_id;sensor_type;location;lat;lon;timestamp;P1;durP1;ratioP1;P2;durP2;ratioP2
22955;SDS011;40888;48.148;11.526;2022-09-27T00:01:48;2.07;;;1.97;;
22955;SDS011;40888;48.148;11.526;2022-09-27T00:04:14;2.53;;;1.73;;
22955;SDS011;40888;48.148;11.526;2022-09-27T00:06:41;1.83;;;1.70;;
22955;SDS011;40888;48.148;11.526;2022-09-27T00:09:08;2.40;;;2.20;;
22955;SDS011;40888;48.148;11.526;2022-09-27T00:11:36;1.60;;;1.50;;
22955;SDS011;40888;48.148;11.526;2022-09-27T00:14:03;1.80;;;1.70;;
22955;SDS011;40888;48.148;11.526;2022-09-27T00:16:30;3.27;;;1.93;;
22955;SDS011;40888;48.148;11.526;2022-09-27T00:18:57;1.87;;;1.77;;
22955;SDS011;40888;48.148;11.526;2022-09-27T00:21:24;1.77;;;1.67;;
22955;SDS011;40888;48.148;11.526;2022-09-27T00:23:51;2.00;;;1.90;;
22955;SDS011;40888;48.148;11.526;2022-09-27T00:26:17;2.50;;;1.90;;
22955;SDS011;40888;48.148;11.526;2022-09-27T00:28:43;2.67;;;1.80;;
22955;SDS011;40888;48.148;11.526;2022-09-27T00:31:19;2.13;;;1.70;;
22955;SDS011;40888;48.148;11.526;2022-09-27T00:33:46;2.03;;;1.90;;
22955;SDS011;40888;48.148;11.526;2022-09-27T00:36:13;2.33;;;2.13;;
22955;SDS011;40888;48.148;11.526;2022-09-27T00:38:40;1.93;;;1.83;;
22955;SDS011;40888;48.148;11.526;2022-09-27T00:41:08;3.10;;;1.90;;
22955;SDS011;40888;48.148;11.526;2022-09-27T00:43:45;1.80;;;1.70;;
22955;SDS011;40888;48.148;11.526;2022-09-27T00:46:11;1.90;;;1.80;;
22955;SDS011;40888;48.148;11.526;2022-09-27T00:48:39;2.13;;;2.00;;
22955;SDS011;40888;48.148;11.526;2022-09-27T00:51:06;3.87;;;1.87;;
22955;SDS011;40888;48.148;11.526;2022-09-27T00:53:38;2.20;;;2.00;;
22955;SDS011;40888;48.148;11.526;2022-09-27T00:56:09;2.20;;;2.00;;
22955;SDS011;40888;48.148;11.526;2022-09-27T00:58:41;1.60;;;1.50;;
22955;SDS011;40888;48.148;11.526;2022-09-27T01:01:08;1.80;;;1.70;;
22955;SDS011;40888;48.148;11.526;2022-09-27T01:03:43;2.00;;;1.90;;
22955;SDS011;40888;48.148;11.526;2022-09-27T01:06:11;1.87;;;1.77;;
22955;SDS011;40888;48.148;11.526;2022-09-27T01:08:37;1.63;;;1.53;;
22955;SDS011;40888;48.148;11.526;2022-09-27T01:13:53;1.90;;;1.80;;
22955;SDS011;40888;48.148;11.526;2022-09-27T01:17:07;2.00;;;1.90;;
22955;SDS011;40888;48.148;11.526;2022-09-27T01:22:06;2.30;;;2.10;;
22955;SDS011;40888;48.148;11.526;2022-09-27T01:24:54;3.40;;;2.33;;
22955;SDS011;40888;48.148;11.526;2022-09-27T01:30:06;1.90;;;1.80;;
22955;SDS011;40888;48.148;11.526;2022-09-27T01:32:34;2.40;;;2.20;;
22955;SDS011;40888;48.148;11.526;2022-09-27T01:35:08;2.37;;;2.17;;
22955;SDS011;40888;48.148;11.526;2022-09-27T01:37:50;2.50;;;2.30;;
22955;SDS011;40888;48.148;11.526;2022-09-27T01:40:25;2.93;;;2.70;;
22955;SDS011;40888;48.148;11.526;2022-09-27T01:42:59;2.87;;;2.50;;
22955;SDS011;40888;48.148;11.526;2022-09-27T01:45:29;2.80;;;2.60;;
22955;SDS011;40888;48.148;11.526;2022-09-27T01:47:58;2.80;;;2.60;;
22955;SDS011;40888;48.148;11.526;2022-09-27T01:50:28;2.80;;;2.60;;
22955;SDS011;40888;48.148;11.526;2022-09-27T01:53:04;2.40;;;2.30;;
22955;SDS011;40888;48.148;11.526;2022-09-27T01:55:32;2.97;;;2.67;;
22955;SDS011;40888;48.148;11.526;2022-09-27T02:00:50;4.07;;;2.93;;
22955;SDS011;40888;48.148;11.526;2022-09-27T02:03:23;3.20;;;3.00;;
22955;SDS011;40888;48.148;11.526;2022-09-27T02:05:51;3.57;;;3.27;;
22955;SDS011;40888;48.148;11.526;2022-09-27T02:08:25;3.73;;;3.33;;
22955;SDS011;40888;48.148;11.526;2022-09-27T02:10:55;4.97;;;3.30;;
22955;SDS011;40888;48.148;11.526;2022-09-27T02:13:31;3.37;;;3.17;;
22955;SDS011;40888;48.148;11.526;2022-09-27T02:16:16;3.50;;;3.20;;
22955;SDS011;40888;48.148;11.526;2022-09-27T02:18:55;4.37;;;3.10;;
22955;SDS011;40888;48.148;11.526;2022-09-27T02:21:24;3.60;;;3.13;;
22955;SDS011;40888;48.148;11.526;2022-09-27T02:23:56;4.10;;;3.10;;
22955;SDS011;40888;48.148;11.526;2022-09-27T02:26:31;4.70;;;3.20;;
22955;SDS011;40888;48.148;11.526;2022-09-27T02:29:08;4.20;;;3.77;;
22955;SDS011;40888;48.148;11.526;2022-09-27T02:31:35;4.10;;;3.70;;
22955;SDS011;40888;48.148;11.526;2022-09-27T02:34:06;3.73;;;3.43;;
22955;SDS011;40888;48.148;11.526;2022-09-27T02:36:34;3.87;;;3.40;;
22955;SDS011;40888;48.148;11.526;2022-09-27T02:39:00;3.87;;;3.57;;
22955;SDS011;40888;48.148;11.526;2022-09-27T02:41:27;3.47;;;3.17;;
22955;SDS011;40888;48.148;11.526;2022-09-27T02:43:58;4.00;;;3.70;;
22955;SDS011;40888;48.148;11.526;2022-09-27T02:57:02;5.90;;;3.47;;
22955;SDS011;40888;48.148;11.526;2022-09-27T03:02:05;4.27;;;3.73;;
22955;SDS011;40888;48.148;11.526;2022-09-27T03:04:36;3.47;;;3.17;;
22955;SDS011;40888;48.148;11.526;2022-09-27T03:07:04;4.47;;;4.00;;
22955;SDS011;40888;48.148;11.526;2022-09-27T03:09:44;4.20;;;3.80;;
22955;SDS011;40888;48.148;11.526;2022-09-27T03:12:12;4.23;;;3.83;;
22955;SDS011;40888;48.148;11.526;2022-09-27T03:14:38;4.47;;;4.07;;
22955;SDS011;40888;48.148;11.526;2022-09-27T03:17:05;4.33;;;3.63;;
22955;SDS011;40888;48.148;11.526;2022-09-27T03:19:31;5.30;;;3.70;;
22955;SDS011;40888;48.148;11.526;2022-09-27T03:21:57;4.43;;;4.03;;
22955;SDS011;40888;48.148;11.526;2022-09-27T03:24:23;5.53;;;3.97;;
22955;SDS011;40888;48.148;11.526;2022-09-27T03:26:50;4.47;;;3.70;;
22955;SDS011;40888;48.148;11.526;2022-09-27T03:29:16;5.13;;;4.13;;
22955;SDS011;40888;48.148;11.526;2022-09-27T03:31:42;4.73;;;4.23;;
22955;SDS011;40888;48.148;11.526;2022-09-27T03:34:08;4.13;;;3.57;;
22955;SDS011;40888;48.148;11.526;2022-09-27T03:36:34;4.33;;;3.90;;
22955;SDS011;40888;48.148;11.526;2022-09-27T03:39:01;5.43;;;3.73;;
22955;SDS011;40888;48.148;11.526;2022-09-27T03:41:27;3.97;;;3.67;;
22955;SDS011;40888;48.148;11.526;2022-09-27T03:43:53;5.00;;;3.83;;
22955;SDS011;40888;48.148;11.526;2022-09-27T03:46:22;4.33;;;3.90;;
22955;SDS011;40888;48.148;11.526;2022-09-27T03:48:48;4.77;;;4.03;;
22955;SDS011;40888;48.148;11.526;2022-09-27T03:51:14;4.40;;;4.00;;
22955;SDS011;40888;48.148;11.526;2022-09-27T03:53:40;3.27;;;2.90;;
22955;SDS011;40888;48.148;11.526;2022-09-27T03:56:07;3.63;;;3.17;;
22955;SDS011;40888;48.148;11.526;2022-09-27T03:58:33;3.83;;;3.33;;
22955;SDS011;40888;48.148;11.526;2022-09-27T04:00:59;4.30;;;3.90;;
22955;SDS011;40888;48.148;11.526;2022-09-27T04:03:25;4.77;;;4.07;;
22955;SDS011;40888;48.148;11.526;2022-09-27T04:05:52;3.47;;;3.17;;
22955;SDS011;40888;48.148;11.526;2022-09-27T04:08:19;3.77;;;3.47;;
22955;SDS011;40888;48.148;11.526;2022-09-27T04:10:46;3.93;;;3.23;;
22955;SDS011;40888;48.148;11.526;2022-09-27T04:13:12;3.77;;;3.47;;
22955;SDS011;40888;48.148;11.526;2022-09-27T04:15:38;3.87;;;3.57;;
22955;SDS011;40888;48.148;11.526;2022-09-27T04:18:05;4.00;;;3.70;;
22955;SDS011;40888;48.148;11.526;2022-09-27T04:20:32;3.77;;;3.20;;
22955;SDS011;40888;48.148;11.526;2022-09-27T04:22:58;3.73;;;3.43;;
22955;SDS011;40888;48.148;11.526;2022-09-27T04:25:24;4.47;;;3.80;;
22955;SDS011;40888;48.148;11.526;2022-09-27T04:27:50;4.57;;;3.53;;
22955;SDS011;40888;48.148;11.526;2022-09-27T04:30:19;2.80;;;2.60;;
22955;SDS011;40888;48.148;11.526;2022-09-27T04:32:45;3.37;;;2.70;;
22955;SDS011;40888;48.148;11.526;2022-09-27T04:35:12;2.53;;;2.33;;
22955;SDS011;40888;48.148;11.526;2022-09-27T04:37:57;2.87;;;2.43;;
22955;SDS011;40888;48.148;11.526;2022-09-27T04:40:24;2.67;;;2.47;;
22955;SDS011;40888;48.148;11.526;2022-09-27T04:42:50;2.70;;;2.50;;
22955;SDS011;40888;48.148;11.526;2022-09-27T04:45:17;2.40;;;2.20;;
22955;SDS011;40888;48.148;11.526;2022-09-27T04:47:43;2.50;;;2.30;;
22955;SDS011;40888;48.148;11.526;2022-09-27T04:50:10;2.93;;;2.73;;
22955;SDS011;40888;48.148;11.526;2022-09-27T04:52:37;2.50;;;2.30;;
22955;SDS011;40888;48.148;11.526;2022-09-27T04:55:03;3.03;;;2.77;;
22955;SDS011;40888;48.148;11.526;2022-09-27T04:57:29;6.33;;;2.60;;
22955;SDS011;40888;48.148;11.526;2022-09-27T04:59:56;2.70;;;2.50;;
22955;SDS011;40888;48.148;11.526;2022-09-27T05:02:25;3.73;;;2.53;;
22955;SDS011;40888;48.148;11.526;2022-09-27T05:04:52;2.53;;;2.27;;
22955;SDS011;40888;48.148;11.526;2022-09-27T05:07:20;3.23;;;2.63;;
22955;SDS011;40888;48.148;11.526;2022-09-27T05:09:46;2.23;;;2.13;;
22955;SDS011;40888;48.148;11.526;2022-09-27T05:12:12;2.60;;;2.10;;
22955;SDS011;40888;48.148;11.526;2022-09-27T05:14:39;2.20;;;2.10;;
22955;SDS011;40888;48.148;11.526;2022-09-27T05:17:05;2.27;;;2.13;;
22955;SDS011;40888;48.148;11.526;2022-09-27T05:19:32;2.63;;;2.43;;
22955;SDS011;40888;48.148;11.526;2022-09-27T05:21:58;3.27;;;2.60;;
22955;SDS011;40888;48.148;11.526;2022-09-27T05:24:25;3.50;;;2.73;;
22955;SDS011;40888;48.148;11.526;2022-09-27T05:26:57;2.00;;;1.87;;
22955;SDS011;40888;48.148;11.526;2022-09-27T05:29:23;1.90;;;1.80;;
22955;SDS011;40888;48.148;11.526;2022-09-27T05:31:50;1.70;;;1.60;;
22955;SDS011;40888;48.148;11.526;2022-09-27T05:34:16;2.23;;;1.40;;
22955;SDS011;40888;48.148;11.526;2022-09-27T05:36:47;1.70;;;1.60;;
22955;SDS011;40888;48.148;11.526;2022-09-27T05:39:14;1.70;;;1.20;;
22955;SDS011;40888;48.148;11.526;2022-09-27T05:41:43;1.50;;;1.27;;
22955;SDS011;40888;48.148;11.526;2022-09-27T05:44:09;1.77;;;1.17;;
22955;SDS011;40888;48.148;11.526;2022-09-27T05:46:37;1.47;;;1.30;;
22955;SDS011;40888;48.148;11.526;2022-09-27T05:49:04;4.40;;;1.23;;
22955;SDS011;40888;48.148;11.526;2022-09-27T05:51:30;1.80;;;1.07;;
22955;SDS011;40888;48.148;11.526;2022-09-27T05:53:56;1.30;;;1.20;;
22955;SDS011;40888;48.148;11.526;2022-09-27T05:56:23;1.03;;;0.93;;
22955;SDS011;40888;48.148;11.526;2022-09-27T05:58:49;2.03;;;1.10;;
22955;SDS011;40888;48.148;11.526;2022-09-27T06:01:16;0.80;;;0.80;;
22955;SDS011;40888;48.148;11.526;2022-09-27T06:03:42;2.73;;;1.20;;
22955;SDS011;40888;48.148;11.526;2022-09-27T06:06:10;1.50;;;1.40;;
22955;SDS011;40888;48.148;11.526;2022-09-27T06:08:37;1.30;;;0.87;;
22955;SDS011;40888;48.148;11.526;2022-09-27T06:11:04;3.13;;;0.83;;
22955;SDS011;40888;48.148;11.526;2022-09-27T06:13:31;2.20;;;1.00;;
22955;SDS011;40888;48.148;11.526;2022-09-27T06:15:57;1.50;;;1.00;;
22955;SDS011;40888;48.148;11.526;2022-09-27T06:18:24;0.60;;;0.60;;
22955;SDS011;40888;48.148;11.526;2022-09-27T06:20:50;2.97;;;1.10;;
22955;SDS011;40888;48.148;11.526;2022-09-27T06:23:18;0.80;;;0.80;;
22955;SDS011;40888;48.148;11.526;2022-09-27T06:25:44;1.73;;;0.87;;
22955;SDS011;40888;48.148;11.526;2022-09-27T06:28:11;1.60;;;1.00;;
22955;SDS011;40888;48.148;11.526;2022-09-27T06:30:38;1.77;;;1.10;;
22955;SDS011;40888;48.148;11.526;2022-09-27T06:33:05;1.93;;;0.90;;
22955;SDS011;40888;48.148;11.526;2022-09-27T06:35:33;1.97;;;1.10;;
22955;SDS011;40888;48.148;11.526;2022-09-27T06:38:01;0.97;;;0.80;;
22955;SDS011;40888;48.148;11.526;2022-09-27T06:40:28;2.40;;;1.00;;
22955;SDS011;40888;48.148;11.526;2022-09-27T06:42:54;1.37;;;0.83;;
22955;SDS011;40888;48.148;11.526;2022-09-27T06:45:26;2.77;;;1.37;;
22955;SDS011;40888;48.148;11.526;2022-09-27T06:47:52;0.93;;;0.90;;
22955;SDS011;40888;48.148;11.526;2022-09-27T06:50:19;1.50;;;0.97;;
22955;SDS011;40888;48.148;11.526;2022-09-27T06:52:46;2.37;;;1.00;;
22955;SDS011;40888;48.148;11.526;2022-09-27T06:55:13;1.73;;;1.20;;
22955;SDS011;40888;48.148;11.526;2022-09-27T06:57:39;1.67;;;0.67;;
22955;SDS011;40888;48.148;11.526;2022-09-27T07:00:24;0.90;;;0.90;;
22955;SDS011;40888;48.148;11.526;2022-09-27T07:02:54;2.93;;;1.20;;
22955;SDS011;40888;48.148;11.526;2022-09-27T07:05:28;1.17;;;1.07;;
22955;SDS011;40888;48.148;11.526;2022-09-27T07:07:57;2.60;;;1.10;;
22955;SDS011;40888;48.148;11.526;2022-09-27T07:10:24;3.17;;;1.20;;
22955;SDS011;40888;48.148;11.526;2022-09-27T07:12:50;4.37;;;1.20;;
22955;SDS011;40888;48.148;11.526;2022-09-27T07:15:17;2.23;;;1.40;;
22955;SDS011;40888;48.148;11.526;2022-09-27T07:17:46;3.10;;;1.30;;
22955;SDS011;40888;48.148;11.526;2022-09-27T07:20:12;2.10;;;1.33;;
22955;SDS011;40888;48.148;11.526;2022-09-27T07:22:40;3.10;;;1.20;;
22955;SDS011;40888;48.148;11.526;2022-09-27T07:25:07;1.23;;;1.13;;
22955;SDS011;40888;48.148;11.526;2022-09-27T07:27:33;2.20;;;1.37;;
22955;SDS011;40888;48.148;11.526;2022-09-27T07:30:00;2.70;;;1.23;;
22955;SDS011;40888;48.148;11.526;2022-09-27T07:32:26;1.87;;;1.30;;
22955;SDS011;40888;48.148;11.526;2022-09-27T07:34:52;1.57;;;1.23;;
22955;SDS011;40888;48.148;11.526;2022-09-27T07:37:18;2.10;;;1.03;;
22955;SDS011;40888;48.148;11.526;2022-09-27T07:39:44;1.50;;;1.03;;
22955;SDS011;40888;48.148;11.526;2022-09-27T07:42:10;2.33;;;1.00;;
22955;SDS011;40888;48.148;11.526;2022-09-27T07:44:37;3.27;;;0.80;;
22955;SDS011;40888;48.148;11.526;2022-09-27T07:47:05;1.37;;;0.70;;
22955;SDS011;40888;48.148;11.526;2022-09-27T07:49:32;0.73;;;0.40;;
22955;SDS011;40888;48.148;11.526;2022-09-27T07:51:58;0.53;;;0.53;;
22955;SDS011;40888;48.148;11.526;2022-09-27T07:54:24;1.97;;;0.73;;
22955;SDS011;40888;48.148;11.526;2022-09-27T07:56:50;0.63;;;0.50;;
22955;SDS011;40888;48.148;11.526;2022-09-27T07:59:17;1.10;;;0.57;;
22955;SDS011;40888;48.148;11.526;2022-09-27T08:01:43;0.77;;;0.40;;
22955;SDS011;40888;48.148;11.526;2022-09-27T08:04:10;0.47;;;0.20;;
22955;SDS011;40888;48.148;11.526;2022-09-27T08:06:36;0.30;;;0.27;;
22955;SDS011;40888;48.148;11.526;2022-09-27T08:09:06;0.83;;;0.67;;
22955;SDS011;40888;48.148;11.526;2022-09-27T08:11:33;0.67;;;0.40;;
22955;SDS011;40888;48.148;11.526;2022-09-27T08:14:01;0.60;;;0.50;;
22955;SDS011;40888;48.148;11.526;2022-09-27T08:16:28;0.43;;;0.43;;
22955;SDS011;40888;48.148;11.526;2022-09-27T08:18:55;0.53;;;0.30;;
22955;SDS011;40888;48.148;11.526;2022-09-27T08:21:21;0.67;;;0.30;;
22955;SDS011;40888;48.148;11.526;2022-09-27T08:23:47;0.43;;;0.40;;
22955;SDS011;40888;48.148;11.526;2022-09-27T08:26:13;1.13;;;0.33;;
22955;SDS011;40888;48.148;11.526;2022-09-27T08:28:39;0.97;;;0.40;;
22955;SDS011;40888;48.148;11.526;2022-09-27T08:31:05;0.30;;;0.30;;
22955;SDS011;40888;48.148;11.526;2022-09-27T08:33:32;0.60;;;0.50;;
22955;SDS011;40888;48.148;11.526;2022-09-27T08:35:58;1.00;;;0.57;;
22955;SDS011;40888;48.148;11.526;2022-09-27T08:38:25;1.10;;;0.70;;
22955;SDS011;40888;48.148;11.526;2022-09-27T08:40:55;2.73;;;0.77;;
22955;SDS011;40888;48.148;11.526;2022-09-27T08:45:59;0.87;;;0.60;;
22955;SDS011;40888;48.148;11.526;2022-09-27T08:48:27;0.60;;;0.60;;
22955;SDS011;40888;48.148;11.526;2022-09-27T08:50:53;1.50;;;0.70;;
22955;SDS011;40888;48.148;11.526;2022-09-27T08:53:27;0.73;;;0.60;;
22955;SDS011;40888;48.148;11.526;2022-09-27T08:55:56;0.50;;;0.50;;
22955;SDS011;40888;48.148;11.526;2022-09-27T09:00:52;0.43;;;0.43;;
22955;SDS011;40888;48.148;11.526;2022-09-27T09:03:20;0.70;;;0.70;;
22955;SDS011;40888;48.148;11.526;2022-09-27T09:05:56;1.03;;;0.47;;
22955;SDS011;40888;48.148;11.526;2022-09-27T09:10:58;1.23;;;0.47;;
22955;SDS011;40888;48.148;11.526;2022-09-27T09:16:37;1.10;;;0.73;;
22955;SDS011;40888;48.148;11.526;2022-09-27T09:24:42;1.13;;;0.70;;
22955;SDS011;40888;48.148;11.526;2022-09-27T09:35:09;1.70;;;0.43;;
22955;SDS011;40888;48.148;11.526;2022-09-27T09:37:43;0.30;;;0.30;;
22955;SDS011;40888;48.148;11.526;2022-09-27T09:40:15;0.80;;;0.40;;
22955;SDS011;40888;48.148;11.526;2022-09-27T09:42:47;0.63;;;0.50;;
22955;SDS011;40888;48.148;11.526;2022-09-27T09:45:20;1.00;;;0.67;;
22955;SDS011;40888;48.148;11.526;2022-09-27T09:55:46;0.97;;;0.70;;
22955;SDS011;40888;48.148;11.526;2022-09-27T09:58:19;0.73;;;0.43;;
22955;SDS011;40888;48.148;11.526;2022-09-27T10:00:49;0.60;;;0.60;;
22955;SDS011;40888;48.148;11.526;2022-09-27T10:03:16;0.43;;;0.43;;
22955;SDS011;40888;48.148;11.526;2022-09-27T10:05:43;0.30;;;0.30;;
22955;SDS011;40888;48.148;11.526;2022-09-27T10:08:19;0.80;;;0.50;;
22955;SDS011;40888;48.148;11.526;2022-09-27T10:10:46;1.50;;;0.80;;
22955;SDS011;40888;48.148;11.526;2022-09-27T10:13:17;1.23;;;0.57;;
22955;SDS011;40888;48.148;11.526;2022-09-27T10:16:17;0.80;;;0.50;;
22955;SDS011;40888;48.148;11.526;2022-09-27T10:18:36;2.40;;;0.73;;
22955;SDS011;40888;48.148;11.526;2022-09-27T10:21:05;0.60;;;0.60;;
22955;SDS011;40888;48.148;11.526;2022-09-27T10:23:32;0.50;;;0.50;;
22955;SDS011;40888;48.148;11.526;2022-09-27T10:25:59;1.07;;;0.70;;
22955;SDS011;40888;48.148;11.526;2022-09-27T10:28:31;1.37;;;0.73;;
22955;SDS011;40888;48.148;11.526;2022-09-27T10:31:01;1.10;;;0.50;;
22955;SDS011;40888;48.148;11.526;2022-09-27T10:33:28;0.57;;;0.57;;
22955;SDS011;40888;48.148;11.526;2022-09-27T10:35:56;1.20;;;0.80;;
22955;SDS011;40888;48.148;11.526;2022-09-27T10:40:49;2.63;;;0.70;;
22955;SDS011;40888;48.148;11.526;2022-09-27T10:43:26;1.20;;;1.10;;
22955;SDS011;40888;48.148;11.526;2022-09-27T10:46:26;0.90;;;0.90;;
22955;SDS011;40888;48.148;11.526;2022-09-27T10:48:45;2.10;;;0.87;;
22955;SDS011;40888;48.148;11.526;2022-09-27T10:51:22;1.23;;;0.87;;
22955;SDS011;40888;48.148;11.526;2022-09-27T10:53:49;0.87;;;0.77;;
22955;SDS011;40888;48.148;11.526;2022-09-27T10:56:23;0.90;;;0.67;;
22955;SDS011;40888;48.148;11.526;2022-09-27T10:58:50;1.67;;;0.63;;
22955;SDS011;40888;48.148;11.526;2022-09-27T11:01:16;0.97;;;0.80;;
22955;SDS011;40888;48.148;11.526;2022-09-27T11:03:50;0.53;;;0.53;;
22955;SDS011;40888;48.148;11.526;2022-09-27T11:06:28;1.07;;;0.70;;
22955;SDS011;40888;48.148;11.526;2022-09-27T11:08:58;0.90;;;0.90;;
22955;SDS011;40888;48.148;11.526;2022-09-27T11:11:34;1.23;;;1.07;;
22955;SDS011;40888;48.148;11.526;2022-09-27T11:14:02;0.93;;;0.90;;
22955;SDS011;40888;48.148;11.526;2022-09-27T11:21:48;1.00;;;0.90;;
22955;SDS011;40888;48.148;11.526;2022-09-27T11:24:31;0.80;;;0.80;;
22955;SDS011;40888;48.148;11.526;2022-09-27T11:29:34;0.70;;;0.70;;
22955;SDS011;40888;48.148;11.526;2022-09-27T11:32:14;0.90;;;0.80;;
22955;SDS011;40888;48.148;11.526;2022-09-27T11:55:44;0.47;;;0.47;;
22955;SDS011;40888;48.148;11.526;2022-09-27T12:00:36;0.70;;;0.60;;
22955;SDS011;40888;48.148;11.526;2022-09-27T12:11:23;1.37;;;0.50;;
22955;SDS011;40888;48.148;11.526;2022-09-27T12:13:48;0.90;;;0.73;;
22955;SDS011;40888;48.148;11.526;2022-09-27T12:16:17;2.27;;;0.90;;
22955;SDS011;40888;48.148;11.526;2022-09-27T12:18:44;1.00;;;0.53;;
22955;SDS011;40888;48.148;11.526;2022-09-27T12:21:11;1.53;;;1.00;;
22955;SDS011;40888;48.148;11.526;2022-09-27T12:26:12;1.20;;;0.80;;
22955;SDS011;40888;48.148;11.526;2022-09-27T12:31:17;2.07;;;0.83;;
22955;SDS011;40888;48.148;11.526;2022-09-27T12:36:38;1.10;;;1.00;;
22955;SDS011;40888;48.148;11.526;2022-09-27T12:41:45;2.90;;;1.37;;
22955;SDS011;40888;48.148;11.526;2022-09-27T12:44:13;1.37;;;1.27;;
22955;SDS011;40888;48.148;11.526;2022-09-27T12:46:43;1.20;;;1.10;;
22955;SDS011;40888;48.148;11.526;2022-09-27T12:49:17;1.20;;;1.10;;
22955;SDS011;40888;48.148;11.526;2022-09-27T12:51:58;1.07;;;1.07;;
22955;SDS011;40888;48.148;11.526;2022-09-27T13:01:59;1.00;;;1.00;;
22955;SDS011;40888;48.148;11.526;2022-09-27T13:09:39;1.57;;;1.13;;
22955;SDS011;40888;48.148;11.526;2022-09-27T13:20:50;1.07;;;0.80;;
22955;SDS011;40888;48.148;11.526;2022-09-27T13:22:51;2.03;;;0.67;;
22955;SDS011;40888;48.148;11.526;2022-09-27T13:28:21;0.60;;;0.60;;
22955;SDS011;40888;48.148;11.526;2022-09-27T13:30:52;0.90;;;0.60;;
22955;SDS011;40888;48.148;11.526;2022-09-27T13:38:30;1.37;;;0.50;;
22955;SDS011;40888;48.148;11.526;2022-09-27T13:41:16;0.60;;;0.60;;
22955;SDS011;40888;48.148;11.526;2022-09-27T13:43:48;1.77;;;0.50;;
22955;SDS011;40888;48.148;11.526;2022-09-27T13:46:18;0.77;;;0.50;;
22955;SDS011;40888;48.148;11.526;2022-09-27T13:48:53;1.10;;;0.60;;
22955;SDS011;40888;48.148;11.526;2022-09-27T13:59:19;0.93;;;0.60;;
22955;SDS011;40888;48.148;11.526;2022-09-27T14:01:48;2.10;;;0.73;;
22955;SDS011;40888;48.148;11.526;2022-09-27T14:04:17;1.47;;;0.80;;
22955;SDS011;40888;48.148;11.526;2022-09-27T14:06:46;2.03;;;1.00;;
22955;SDS011;40888;48.148;11.526;2022-09-27T14:09:20;1.17;;;0.60;;
22955;SDS011;40888;48.148;11.526;2022-09-27T14:11:53;5.57;;;0.97;;
22955;SDS011;40888;48.148;11.526;2022-09-27T14:14:22;1.53;;;0.80;;
22955;SDS011;40888;48.148;11.526;2022-09-27T14:16:49;1.87;;;0.70;;
22955;SDS011;40888;48.148;11.526;2022-09-27T14:19:17;1.40;;;0.80;;
22955;SDS011;40888;48.148;11.526;2022-09-27T14:21:43;1.60;;;0.60;;
22955;SDS011;40888;48.148;11.526;2022-09-27T14:24:18;2.43;;;0.70;;
22955;SDS011;40888;48.148;11.526;2022-09-27T14:26:45;0.82;;;0.50;;
22955;SDS011;40888;48.148;11.526;2022-09-27T14:29:15;0.60;;;0.60;;
22955;SDS011;40888;48.148;11.526;2022-09-27T14:31:41;0.63;;;0.63;;
22955;SDS011;40888;48.148;11.526;2022-09-27T14:34:10;2.27;;;0.63;;
22955;SDS011;40888;48.148;11.526;2022-09-27T14:36:37;1.40;;;0.40;;
22955;SDS011;40888;48.148;11.526;2022-09-27T14:39:29;1.60;;;0.70;;
22955;SDS011;40888;48.148;11.526;2022-09-27T14:41:59;3.33;;;0.52;;
22955;SDS011;40888;48.148;11.526;2022-09-27T14:44:26;1.83;;;0.27;;
22955;SDS011;40888;48.148;11.526;2022-09-27T14:47:08;2.00;;;0.40;;
22955;SDS011;40888;48.148;11.526;2022-09-27T14:49:35;0.70;;;0.63;;
22955;SDS011;40888;48.148;11.526;2022-09-27T14:52:01;1.83;;;0.60;;
22955;SDS011;40888;48.148;11.526;2022-09-27T14:54:28;1.47;;;0.80;;
22955;SDS011;40888;48.148;11.526;2022-09-27T14:56:57;0.60;;;0.60;;
22955;SDS011;40888;48.148;11.526;2022-09-27T14:59:25;0.87;;;0.80;;
22955;SDS011;40888;48.148;11.526;2022-09-27T15:01:55;0.73;;;0.73;;
22955;SDS011;40888;48.148;11.526;2022-09-27T15:04:24;1.87;;;0.60;;
22955;SDS011;40888;48.148;11.526;2022-09-27T15:06:52;2.50;;;0.80;;
22955;SDS011;40888;48.148;11.526;2022-09-27T15:09:19;1.40;;;0.70;;
22955;SDS011;40888;48.148;11.526;2022-09-27T15:11:46;2.23;;;1.00;;
22955;SDS011;40888;48.148;11.526;2022-09-27T15:14:16;0.80;;;0.67;;
22955;SDS011;40888;48.148;11.526;2022-09-27T15:16:46;1.40;;;0.87;;
22955;SDS011;40888;48.148;11.526;2022-09-27T15:19:14;1.67;;;0.90;;
22955;SDS011;40888;48.148;11.526;2022-09-27T15:21:43;1.60;;;1.00;;
22955;SDS011;40888;48.148;11.526;2022-09-27T15:26:54;1.93;;;0.90;;
22955;SDS011;40888;48.148;11.526;2022-09-27T15:29:23;2.13;;;0.90;;
22955;SDS011;40888;48.148;11.526;2022-09-27T15:32:03;1.57;;;0.90;;
22955;SDS011;40888;48.148;11.526;2022-09-27T15:34:30;1.03;;;0.87;;
22955;SDS011;40888;48.148;11.526;2022-09-27T15:36:59;0.83;;;0.83;;
22955;SDS011;40888;48.148;11.526;2022-09-27T15:39:31;1.00;;;0.80;;
22955;SDS011;40888;48.148;11.526;2022-09-27T15:41:59;1.80;;;1.30;;
22955;SDS011;40888;48.148;11.526;2022-09-27T15:44:42;0.73;;;0.73;;
22955;SDS011;40888;48.148;11.526;2022-09-27T15:49:56;1.03;;;0.60;;
22955;SDS011;40888;48.148;11.526;2022-09-27T15:52:41;1.70;;;1.03;;
22955;SDS011;40888;48.148;11.526;2022-09-27T15:55:11;1.43;;;0.90;;
22955;SDS011;40888;48.148;11.526;2022-09-27T15:57:38;1.87;;;1.00;;
22955;SDS011;40888;48.148;11.526;2022-09-27T16:00:04;8.23;;;5.30;;
22955;SDS011;40888;48.148;11.526;2022-09-27T16:02:31;1.97;;;1.77;;
22955;SDS011;40888;48.148;11.526;2022-09-27T16:04:57;2.10;;;1.33;;
22955;SDS011;40888;48.148;11.526;2022-09-27T16:07:23;2.47;;;1.30;;
22955;SDS011;40888;48.148;11.526;2022-09-27T16:09:49;2.17;;;1.60;;
22955;SDS011;40888;48.148;11.526;2022-09-27T16:12:19;3.73;;;2.90;;
22955;SDS011;40888;48.148;11.526;2022-09-27T16:14:45;2.57;;;1.97;;
22955;SDS011;40888;48.148;11.526;2022-09-27T16:17:12;2.30;;;1.50;;
22955;SDS011;40888;48.148;11.526;2022-09-27T16:19:39;3.70;;;1.70;;
22955;SDS011;40888;48.148;11.526;2022-09-27T16:22:05;1.40;;;1.27;;
22955;SDS011;40888;48.148;11.526;2022-09-27T16:24:31;2.07;;;1.30;;
22955;SDS011;40888;48.148;11.526;2022-09-27T16:26:57;1.50;;;1.40;;
22955;SDS011;40888;48.148;11.526;2022-09-27T16:29:23;2.83;;;2.17;;
22955;SDS011;40888;48.148;11.526;2022-09-27T16:31:50;4.90;;;2.00;;
